createdAt,value
2018-03-18T00:03:42.200Z,-3.20
2018-03-18T00:09:09.153Z,-3.20
2018-03-18T00:14:38.014Z,-3.20
2018-03-18T00:17:12.990Z,-3.20
2018-03-18T00:19:43.795Z,-3.20
2018-03-18T00:22:16.068Z,-3.20
2018-03-18T00:24:45.570Z,-3.30
2018-03-18T00:27:16.764Z,-3.20
2018-03-18T00:33:05.055Z,-3.30
2018-03-18T00:35:41.007Z,-3.20
2018-03-18T00:38:19.990Z,-3.20
2018-03-18T01:00:35.380Z,-3.50
2018-03-18T01:03:07.781Z,-3.50
2018-03-18T01:05:36.640Z,-3.40
2018-03-18T01:08:08.342Z,-3.40
2018-03-18T01:10:37.114Z,-3.50
2018-03-18T01:13:08.890Z,-3.40
2018-03-18T01:18:26.618Z,-3.40
2018-03-18T01:21:01.755Z,-3.50
2018-03-18T01:23:31.988Z,-3.50
2018-03-18T01:26:07.629Z,-3.70
2018-03-18T01:28:36.808Z,-3.70
2018-03-18T01:31:06.313Z,-3.60
2018-03-18T01:33:36.785Z,-3.60
2018-03-18T01:36:06.359Z,-3.60
2018-03-18T01:38:43.437Z,-3.50
2018-03-18T01:41:21.288Z,-3.50
2018-03-18T01:46:52.612Z,-3.60
2018-03-18T01:49:26.066Z,-3.60
2018-03-18T01:51:57.784Z,-3.60
2018-03-18T01:54:42.300Z,-3.70
2018-03-18T01:57:21.995Z,-3.70
2018-03-18T01:59:57.537Z,-3.70
2018-03-18T02:02:28.442Z,-3.80
2018-03-18T02:05:01.184Z,-3.70
2018-03-18T02:07:33.198Z,-3.80
2018-03-18T02:10:03.137Z,-3.60
2018-03-18T02:12:31.904Z,-3.60
2018-03-18T02:15:01.423Z,-3.60
2018-03-18T02:17:30.582Z,-3.70
2018-03-18T02:20:00.038Z,-3.70
2018-03-18T02:22:29.116Z,-3.70
2018-03-18T02:24:57.811Z,-3.70
2018-03-18T02:27:26.504Z,-3.80
2018-03-18T02:29:55.216Z,-3.80
2018-03-18T02:32:23.907Z,-3.90
2018-03-18T02:34:52.608Z,-3.90
2018-03-18T02:37:21.316Z,-3.90
2018-03-18T02:39:50.211Z,-3.80
2018-03-18T02:42:19.666Z,-3.90
2018-03-18T02:44:48.353Z,-3.90
2018-03-18T02:47:16.862Z,-4.00
2018-03-18T02:49:45.556Z,-4.00
2018-03-18T02:52:14.245Z,-4.00
2018-03-18T02:54:43.768Z,-4.10
2018-03-18T02:57:29.519Z,-4.10
2018-03-18T02:59:59.791Z,-4.10
2018-03-18T03:02:29.313Z,-4.10
2018-03-18T03:05:07.639Z,-4.20
2018-03-18T03:07:42.264Z,-4.20
2018-03-18T03:10:13.786Z,-4.20
2018-03-18T03:12:48.359Z,-4.10
2018-03-18T03:15:17.132Z,-4.10
2018-03-18T03:17:48.447Z,-4.10
2018-03-18T03:20:20.816Z,-4.20
2018-03-18T03:23:07.059Z,-4.20
2018-03-18T03:25:39.414Z,-4.30
2018-03-18T03:28:28.851Z,-4.20
2018-03-18T03:33:50.317Z,-4.10
2018-03-18T03:36:22.956Z,-4.20
2018-03-18T03:38:59.341Z,-4.40
2018-03-18T03:41:56.993Z,-4.40
2018-03-18T03:53:33.319Z,-4.40
2018-03-18T04:01:43.066Z,-4.40
2018-03-18T04:04:12.532Z,-4.60
2018-03-18T04:06:41.410Z,-4.60
2018-03-18T04:09:10.841Z,-4.50
2018-03-18T04:11:40.383Z,-4.60
2018-03-18T04:14:09.946Z,-4.60
2018-03-18T04:16:39.431Z,-4.60
2018-03-18T04:19:12.524Z,-4.60
2018-03-18T04:21:42.211Z,-4.60
2018-03-18T04:24:10.925Z,-4.70
2018-03-18T04:26:40.110Z,-4.60
2018-03-18T04:29:11.390Z,-4.70
2018-03-18T04:31:42.493Z,-4.70
2018-03-18T04:34:11.254Z,-4.80
2018-03-18T04:36:40.960Z,-4.80
2018-03-18T04:39:11.518Z,-4.90
2018-03-18T04:41:40.660Z,-5.00
2018-03-18T04:44:15.105Z,-5.00
2018-03-18T04:46:43.789Z,-5.00
2018-03-18T04:49:12.460Z,-5.00
2018-03-18T04:51:41.920Z,-5.20
2018-03-18T04:54:10.415Z,-5.20
2018-03-18T04:56:39.099Z,-5.20
2018-03-18T04:59:07.785Z,-5.10
2018-03-18T05:01:36.131Z,-5.20
2018-03-18T05:04:04.482Z,-5.20
2018-03-18T05:06:33.966Z,-5.30
2018-03-18T05:09:02.707Z,-5.30
2018-03-18T05:11:32.381Z,-5.30
2018-03-18T05:14:03.453Z,-5.20
2018-03-18T05:16:42.944Z,-5.20
2018-03-18T05:19:19.270Z,-5.30
2018-03-18T05:27:44.427Z,-5.20
2018-03-18T05:33:03.432Z,-5.40
2018-03-18T05:35:36.265Z,-5.40
2018-03-18T05:38:10.107Z,-5.40
2018-03-18T05:40:41.574Z,-5.40
2018-03-18T05:43:12.896Z,-5.40
2018-03-18T05:45:41.606Z,-5.40
2018-03-18T05:48:11.163Z,-5.30
2018-03-18T05:50:39.886Z,-5.20
2018-03-18T05:53:08.977Z,-5.30
2018-03-18T05:55:37.672Z,-5.40
2018-03-18T05:58:06.345Z,-5.40
2018-03-18T06:00:35.043Z,-5.40
2018-03-18T06:03:11.366Z,-5.30
2018-03-18T06:05:40.719Z,-5.40
2018-03-18T06:08:10.537Z,-5.40
2018-03-18T06:10:40.004Z,-5.40
2018-03-18T06:18:29.387Z,-5.30
2018-03-18T06:21:01.444Z,-5.20
2018-03-18T06:23:39.443Z,-5.20
2018-03-18T06:26:14.255Z,-5.20
2018-03-18T06:28:59.048Z,-5.20
2018-03-18T06:31:33.753Z,-5.20
2018-03-18T06:34:04.127Z,-5.30
2018-03-18T06:36:32.998Z,-5.20
2018-03-18T06:39:02.245Z,-5.30
2018-03-18T06:41:30.940Z,-5.30
2018-03-18T06:44:00.524Z,-3.50
2018-03-18T06:55:16.060Z,-4.40
2018-03-18T06:57:46.597Z,-4.40
2018-03-18T07:00:15.885Z,-4.60
2018-03-18T07:02:44.992Z,-4.60
2018-03-18T07:05:13.742Z,-4.50
2018-03-18T07:07:47.062Z,-4.70
2018-03-18T07:10:16.848Z,-4.70
2018-03-18T07:12:47.033Z,-4.70
2018-03-18T07:15:15.741Z,-4.70
2018-03-18T07:17:52.496Z,-4.60
2018-03-18T07:20:22.268Z,-4.50
2018-03-18T07:22:50.994Z,-4.50
2018-03-18T07:25:22.680Z,-4.40
2018-03-18T07:27:52.913Z,-4.40
2018-03-18T07:30:21.848Z,-4.40
2018-03-18T07:32:50.527Z,-4.50
2018-03-18T07:35:19.290Z,-4.40
2018-03-18T07:37:48.760Z,-4.30
2018-03-18T07:43:36.370Z,-4.30
2018-03-18T07:46:05.131Z,-4.30
2018-03-18T07:48:34.631Z,-4.20
2018-03-18T07:51:04.485Z,-4.10
2018-03-18T07:53:34.195Z,-4.20
2018-03-18T07:56:02.620Z,-4.10
2018-03-18T07:58:31.314Z,-4.20
2018-03-18T08:01:02.318Z,-4.10
2018-03-18T08:03:31.012Z,-3.90
2018-03-18T08:06:00.372Z,-4.00
2018-03-18T08:08:29.099Z,-4.00
2018-03-18T08:10:57.766Z,-4.10
2018-03-18T08:13:27.445Z,-3.90
2018-03-18T08:15:56.910Z,-3.70
2018-03-18T08:18:25.603Z,-3.70
2018-03-18T08:20:55.024Z,-3.60
2018-03-18T08:23:26.973Z,-3.50
2018-03-18T08:25:55.940Z,-3.60
2018-03-18T08:28:26.660Z,-3.50
2018-03-18T08:30:57.894Z,-3.40
2018-03-18T08:33:32.219Z,-3.20
2018-03-18T08:36:01.987Z,-3.20
2018-03-18T08:38:30.648Z,-3.20
2018-03-18T08:40:59.813Z,-3.20
2018-03-18T08:43:29.378Z,-3.20
2018-03-18T08:45:59.074Z,-3.20
2018-03-18T08:48:30.835Z,-3.00
2018-03-18T08:51:00.348Z,-3.00
2018-03-18T08:53:31.917Z,-3.00
2018-03-18T08:56:09.324Z,-2.90
2018-03-18T08:58:39.395Z,-2.80
2018-03-18T09:01:08.116Z,-2.80
2018-03-18T09:03:36.810Z,-2.70
2018-03-18T09:06:04.835Z,-2.50
2018-03-18T09:08:33.533Z,-2.40
2018-03-18T09:11:03.191Z,-2.30
2018-03-18T09:13:33.563Z,-2.20
2018-03-18T09:16:05.704Z,-2.20
2018-03-18T09:18:35.240Z,-2.30
2018-03-18T09:21:03.608Z,-2.30
2018-03-18T09:23:34.705Z,-2.30
2018-03-18T09:26:03.362Z,-2.30
2018-03-18T09:28:32.030Z,-2.20
2018-03-18T09:31:00.699Z,-2.10
2018-03-18T09:33:29.389Z,-2.00
2018-03-18T09:35:58.320Z,-1.90
2018-03-18T09:38:26.675Z,-2.00
2018-03-18T09:40:55.343Z,-2.00
2018-03-18T09:43:24.020Z,-1.70
2018-03-18T09:45:53.866Z,-1.50
2018-03-18T09:48:24.338Z,-1.50
2018-03-18T09:50:53.014Z,-1.60
2018-03-18T09:53:21.413Z,-1.40
2018-03-18T09:55:50.860Z,-1.40
2018-03-18T09:58:19.577Z,-1.40
2018-03-18T10:00:49.570Z,-1.10
2018-03-18T10:03:18.261Z,-1.10
2018-03-18T10:05:46.984Z,-0.70
2018-03-18T10:08:16.844Z,-0.70
2018-03-18T10:10:46.914Z,-0.70
2018-03-18T10:13:16.314Z,-0.70
2018-03-18T10:15:46.019Z,-0.80
2018-03-18T10:18:20.098Z,-0.80
2018-03-18T10:21:11.436Z,-0.80
2018-03-18T10:23:40.148Z,-0.70
2018-03-18T10:26:08.678Z,-0.60
2018-03-18T10:28:37.386Z,-0.50
2018-03-18T10:31:05.629Z,-0.40
2018-03-18T10:33:34.727Z,-0.30
2018-03-18T10:36:03.198Z,-0.30
2018-03-18T10:38:32.647Z,-0.30
2018-03-18T10:41:02.469Z,-0.30
2018-03-18T10:43:31.193Z,-0.20
2018-03-18T10:46:00.788Z,-0.10
2018-03-18T10:48:29.743Z,-0.10
2018-03-18T10:50:58.433Z,0.20
2018-03-18T10:53:27.118Z,0.30
2018-03-18T10:55:56.065Z,0.40
2018-03-18T10:58:26.245Z,0.50
2018-03-18T11:00:54.719Z,0.50
2018-03-18T11:03:23.198Z,0.40
2018-03-18T11:05:51.523Z,0.50
2018-03-18T11:08:20.186Z,0.50
2018-03-18T11:10:48.883Z,0.50
2018-03-18T11:13:18.591Z,0.70
2018-03-18T11:19:11.327Z,1.00
2018-03-18T11:21:39.844Z,1.00
2018-03-18T11:24:12.836Z,1.00
2018-03-18T11:26:44.412Z,1.00
2018-03-18T11:29:13.847Z,1.00
2018-03-18T11:31:42.515Z,1.00
2018-03-18T11:34:28.316Z,1.00
2018-03-18T11:36:56.984Z,1.00
2018-03-18T11:39:27.343Z,0.80
2018-03-18T11:41:55.671Z,0.80
2018-03-18T11:44:24.771Z,1.00
2018-03-18T11:46:53.461Z,1.20
2018-03-18T11:49:21.474Z,1.30
2018-03-18T11:51:50.598Z,1.40
2018-03-18T11:54:20.227Z,1.60
2018-03-18T11:56:48.943Z,1.70
2018-03-18T11:59:21.227Z,1.90
2018-03-18T12:01:50.777Z,1.90
2018-03-18T12:04:20.351Z,2.00
2018-03-18T12:06:49.022Z,2.10
2018-03-18T12:09:17.800Z,2.10
2018-03-18T12:11:48.394Z,2.00
2018-03-18T12:17:01.553Z,2.20
2018-03-18T12:19:30.415Z,2.20
2018-03-18T12:21:59.285Z,2.10
2018-03-18T12:24:28.732Z,2.20
2018-03-18T12:26:57.410Z,2.50
2018-03-18T12:29:26.143Z,2.50
2018-03-18T12:31:54.998Z,2.70
2018-03-18T12:34:23.802Z,2.80
2018-03-18T12:36:52.468Z,2.50
2018-03-18T12:39:21.139Z,1.90
2018-03-18T12:41:50.583Z,1.50
2018-03-18T12:44:20.023Z,1.80
2018-03-18T12:46:48.690Z,1.80
2018-03-18T12:49:18.127Z,2.10
2018-03-18T12:51:47.801Z,2.10
2018-03-18T12:54:19.463Z,1.90
2018-03-18T12:56:48.764Z,1.90
2018-03-18T12:59:17.465Z,1.60
2018-03-18T13:01:47.129Z,1.80
2018-03-18T13:04:15.834Z,1.80
2018-03-18T13:06:44.213Z,1.70
2018-03-18T13:11:45.776Z,1.70
2018-03-18T13:14:16.223Z,1.80
2018-03-18T13:16:46.246Z,1.80
2018-03-18T13:19:15.057Z,1.80
2018-03-18T13:24:19.664Z,1.60
2018-03-18T13:26:49.128Z,1.60
2018-03-18T13:29:17.818Z,1.50
2018-03-18T13:31:46.503Z,1.50
2018-03-18T13:34:21.314Z,1.20
2018-03-18T13:36:50.036Z,1.20
2018-03-18T13:39:24.461Z,1.10
2018-03-18T13:41:53.167Z,1.10
2018-03-18T13:44:24.751Z,0.90
2018-03-18T13:46:54.776Z,0.80
2018-03-18T13:49:25.852Z,0.90
2018-03-18T13:51:56.304Z,1.00
2018-03-18T13:54:30.394Z,1.10
2018-03-18T13:56:59.311Z,1.10
2018-03-18T13:59:28.084Z,1.20
2018-03-18T14:01:57.129Z,1.30
2018-03-18T14:04:25.801Z,1.80
2018-03-18T14:06:54.535Z,2.40
2018-03-18T14:09:23.243Z,2.10
2018-03-18T14:11:51.929Z,1.80
2018-03-18T14:14:22.962Z,1.70
2018-03-18T14:16:52.486Z,1.50
2018-03-18T14:19:22.092Z,1.20
2018-03-18T14:27:46.049Z,0.90
2018-03-18T14:33:12.460Z,0.70
2018-03-18T14:35:45.025Z,0.60
2018-03-18T14:38:13.816Z,0.70
2018-03-18T14:40:43.939Z,0.70
2018-03-18T14:43:13.115Z,0.70
2018-03-18T14:45:43.233Z,0.80
2018-03-18T14:48:11.924Z,0.80
2018-03-18T14:50:40.612Z,0.80
2018-03-18T14:53:09.121Z,0.80
2018-03-18T14:55:38.564Z,0.80
2018-03-18T14:58:20.901Z,0.70
2018-03-18T15:00:49.732Z,0.70
2018-03-18T15:03:18.450Z,0.70
2018-03-18T15:05:47.927Z,0.90
2018-03-18T15:08:17.824Z,0.80
2018-03-18T15:10:46.578Z,0.60
2018-03-18T15:13:15.261Z,0.80
2018-03-18T15:15:43.937Z,0.80
2018-03-18T15:18:12.612Z,1.00
2018-03-18T15:20:42.054Z,0.60
2018-03-18T15:23:10.768Z,0.60
2018-03-18T15:25:39.450Z,0.60
2018-03-18T15:28:08.131Z,0.70
2018-03-18T15:30:36.840Z,0.60
2018-03-18T15:33:06.457Z,0.70
2018-03-18T15:35:35.596Z,0.70
2018-03-18T15:38:03.922Z,0.70
2018-03-18T15:40:32.603Z,0.70
2018-03-18T15:43:01.265Z,0.80
2018-03-18T15:45:29.943Z,0.80
2018-03-18T15:47:58.615Z,0.70
2018-03-18T15:50:28.481Z,0.40
2018-03-18T15:52:57.162Z,0.40
2018-03-18T15:55:25.504Z,0.50
2018-03-18T15:57:54.515Z,0.50
2018-03-18T16:00:22.869Z,0.40
2018-03-18T16:02:51.558Z,0.20
2018-03-18T16:05:20.747Z,0.10
2018-03-18T16:07:50.457Z,0.20
2018-03-18T16:10:19.117Z,0.20
2018-03-18T16:12:51.040Z,0.20
2018-03-18T16:15:20.482Z,0.10
2018-03-18T16:17:49.207Z,0.10
2018-03-18T16:20:17.709Z,0.10
2018-03-18T16:22:46.383Z,0.00
2018-03-18T16:25:15.063Z,-0.20
2018-03-18T16:27:43.747Z,-0.20
2018-03-18T16:30:24.666Z,-0.30
2018-03-18T16:32:53.531Z,-0.30
2018-03-18T16:35:25.389Z,-0.40
2018-03-18T16:38:00.725Z,-0.40
2018-03-18T16:40:33.755Z,-0.50
2018-03-18T16:43:04.037Z,-0.50
2018-03-18T16:45:34.090Z,-0.50
2018-03-18T16:48:07.820Z,-0.50
2018-03-18T16:50:37.558Z,-0.70
2018-03-18T16:53:07.445Z,-0.80
2018-03-18T16:55:36.954Z,-0.80
2018-03-18T16:58:05.401Z,-0.80
2018-03-18T18:08:35.615Z,-1.50
2018-03-18T18:11:04.610Z,-1.50
2018-03-18T18:13:35.092Z,-1.60
2018-03-18T18:18:45.514Z,-1.60
2018-03-18T18:21:14.988Z,-1.60
2018-03-18T18:32:46.092Z,-1.60
2018-03-18T18:35:14.774Z,-1.80
2018-03-18T18:37:45.167Z,-1.80
2018-03-18T18:40:13.873Z,-1.80
2018-03-18T18:42:43.331Z,-1.90
2018-03-18T18:45:13.020Z,-1.90
2018-03-18T18:47:41.704Z,-1.90
2018-03-18T18:50:13.211Z,-1.90
2018-03-18T18:55:25.956Z,-2.00
2018-03-18T18:57:55.397Z,-2.00
2018-03-18T19:00:25.891Z,-2.00
2018-03-18T19:02:55.338Z,-2.00
2018-03-18T19:09:06.517Z,-2.00
2018-03-18T19:11:40.030Z,-2.00
2018-03-18T19:14:23.773Z,-2.10
2018-03-18T19:27:09.644Z,-2.20
2018-03-18T19:29:40.241Z,-2.20
2018-03-18T19:32:14.684Z,-2.20
2018-03-18T19:34:44.313Z,-2.30
2018-03-18T19:37:15.231Z,-2.30
2018-03-18T19:39:43.588Z,-2.20
2018-03-18T19:42:13.075Z,-2.30
2018-03-18T19:44:43.247Z,-2.30
2018-03-18T19:47:12.371Z,-2.30
2018-03-18T19:49:41.056Z,-2.30
2018-03-18T19:52:13.001Z,-2.30
2018-03-18T19:54:44.077Z,-2.30
2018-03-18T19:57:14.025Z,-2.30
2018-03-18T19:59:43.299Z,-2.30
2018-03-18T20:02:13.455Z,-2.30
2018-03-18T20:04:45.800Z,-2.40
2018-03-18T20:07:15.327Z,-2.50
2018-03-18T20:09:49.545Z,-2.50
2018-03-18T20:12:21.931Z,-2.40
2018-03-18T20:14:50.626Z,-2.50
2018-03-18T20:17:35.359Z,-2.40
2018-03-18T20:20:04.610Z,-2.50
2018-03-18T20:22:34.799Z,-2.50
2018-03-18T20:25:04.249Z,-2.50
2018-03-18T20:27:32.912Z,-2.50
2018-03-18T20:30:02.233Z,-2.50
2018-03-18T20:32:34.940Z,-2.60
2018-03-18T20:35:03.308Z,-2.60
2018-03-18T20:37:32.300Z,-2.60
2018-03-18T20:40:01.004Z,-2.60
2018-03-18T20:42:30.037Z,-2.60
2018-03-18T20:44:59.736Z,-2.70
2018-03-18T20:47:29.321Z,-2.60
2018-03-18T20:49:58.381Z,-2.60
2018-03-18T20:52:27.694Z,-2.70
2018-03-18T20:54:56.408Z,-2.70
2018-03-18T20:57:25.133Z,-2.60
2018-03-18T20:59:54.560Z,-2.60
2018-03-18T21:02:23.293Z,-2.70
2018-03-18T21:04:52.762Z,-2.70
2018-03-18T21:07:21.459Z,-2.70
2018-03-18T21:09:50.151Z,-2.70
2018-03-18T21:12:21.596Z,-2.80
2018-03-18T21:14:50.306Z,-2.80
2018-03-18T21:17:19.757Z,-2.80
2018-03-18T21:19:51.512Z,-2.80
2018-03-18T21:22:21.258Z,-2.80
2018-03-18T21:24:50.022Z,-2.80
2018-03-18T21:27:21.866Z,-2.80
2018-03-18T21:29:50.523Z,-2.80
2018-03-18T21:32:19.430Z,-2.90
2018-03-18T21:34:48.890Z,-2.90
2018-03-18T21:37:17.390Z,-2.90
2018-03-18T21:39:46.363Z,-2.90
2018-03-18T21:42:15.233Z,-2.90
2018-03-18T21:44:44.716Z,-3.00
2018-03-18T21:47:13.400Z,-3.00
2018-03-18T21:49:41.756Z,-3.00
2018-03-18T21:52:10.441Z,-3.00
2018-03-18T21:54:39.117Z,-3.00
2018-03-18T21:57:07.796Z,-3.00
2018-03-18T21:59:36.466Z,-3.20
2018-03-18T22:02:04.820Z,-3.10
2018-03-18T22:04:33.162Z,-3.00
2018-03-18T22:07:01.830Z,-3.00
2018-03-18T22:09:30.513Z,-3.10
2018-03-18T22:11:59.198Z,-3.10
2018-03-18T22:14:27.888Z,-3.10
2018-03-18T22:16:56.576Z,-3.10
2018-03-18T22:19:25.323Z,-3.10
2018-03-18T22:21:54.129Z,-3.10
2018-03-18T22:24:22.806Z,-3.00
2018-03-18T22:26:51.497Z,-3.00
2018-03-18T22:29:20.193Z,-3.00
2018-03-18T22:31:48.882Z,-3.00
2018-03-18T22:34:17.564Z,-3.00
2018-03-18T22:36:46.242Z,-3.10
2018-03-18T22:39:14.903Z,-3.10
2018-03-18T22:41:44.363Z,-3.10
2018-03-18T22:44:13.241Z,-3.10
2018-03-18T22:46:41.986Z,-3.20
2018-03-18T22:49:10.807Z,-3.30
2018-03-18T22:51:39.491Z,-3.30
2018-03-18T22:54:08.179Z,-3.20
2018-03-18T22:56:36.871Z,-3.20
2018-03-18T22:59:05.559Z,-3.20
2018-03-18T23:01:34.231Z,-3.30
2018-03-18T23:04:02.907Z,-3.20
2018-03-18T23:06:32.157Z,-3.30
2018-03-18T23:09:00.857Z,-3.30
2018-03-18T23:11:29.545Z,-3.30
2018-03-18T23:13:58.231Z,-3.30
2018-03-18T23:16:26.898Z,-3.30
2018-03-18T23:18:55.584Z,-3.20
2018-03-18T23:21:24.263Z,-3.20
2018-03-18T23:23:52.733Z,-3.20
2018-03-18T23:26:21.429Z,-3.20
2018-03-18T23:28:50.124Z,-3.20
2018-03-18T23:31:18.135Z,-3.10
2018-03-18T23:33:46.815Z,-3.20
2018-03-18T23:36:15.506Z,-3.30
2018-03-18T23:38:44.181Z,-3.30
2018-03-18T23:41:12.694Z,-3.30
2018-03-18T23:43:41.390Z,-3.30
2018-03-18T23:46:09.757Z,-3.30
2018-03-18T23:48:39.264Z,-3.40
2018-03-18T23:51:07.932Z,-3.40
2018-03-18T23:53:36.606Z,-3.40
2018-03-18T23:56:04.976Z,-3.40
2018-03-18T23:58:33.642Z,-3.40
